Time;durP1;ratioP1;P1;durP2;ratioP2;P2;SDS_P1;SDS_P2;PMS_P1;PMS_P2;Temp;Humidity;BMP_temperature;BMP_pressure;BME280_temperature;BME280_humidity;BME280_pressure;Samples;Min_cycle;Max_cycle;Signal;HPM_P1;HPM_P2
2020/12/02 19:14:28;;;;;;;15.63;6.57;;;9.00;99.90;;;;;;4943357;23;20383;-76
2020/12/02 19:17:17;;;;;;;15.00;7.10;;;9.00;99.90;;;;;;4902018;29;20218;-73
2020/12/02 19:19:55;;;;;;;17.03;6.70;;;8.90;99.90;;;;;;4878867;29;20564;-69
2020/12/02 19:22:31;;;;;;;16.73;7.13;;;8.90;99.90;;;;;;4879348;29;20743;-69
2020/12/02 19:25:02;;;;;;;16.97;6.40;;;8.90;99.90;;;;;;4851466;29;20214;-71
2020/12/02 19:27:29;;;;;;;15.10;6.60;;;9.00;99.90;;;;;;4876266;29;20721;-70
2020/12/02 19:30:17;;;;;;;17.27;6.73;;;8.90;99.90;;;;;;4876980;29;20211;-70
2020/12/02 19:32:49;;;;;;;17.67;7.00;;;8.90;99.90;;;;;;4863508;29;20717;-71
2020/12/02 19:35:17;;;;;;;15.17;6.20;;;8.90;99.90;;;;;;4863790;29;20216;-68
2020/12/02 19:37:51;;;;;;;16.53;6.90;;;8.90;99.90;;;;;;4857790;29;20223;-70
2020/12/02 19:40:18;;;;;;;18.90;7.37;;;8.80;99.90;;;;;;4866077;29;20210;-69
2020/12/02 19:42:54;;;;;;;15.03;6.43;;;8.80;99.90;;;;;;4861993;29;20241;-72
2020/12/02 19:45:23;;;;;;;14.63;6.13;;;8.80;99.90;;;;;;4858207;29;20570;-73
2020/12/02 19:47:55;;;;;;;14.67;6.53;;;8.90;99.90;;;;;;4849992;29;20234;-70
2020/12/02 19:50:21;;;;;;;14.73;6.37;;;8.90;99.90;;;;;;4855950;29;20210;-73
2020/12/02 19:52:50;;;;;;;19.37;7.70;;;8.80;99.90;;;;;;4877076;29;20698;-73
2020/12/02 19:55:17;;;;;;;15.70;6.70;;;8.90;99.90;;;;;;4863494;29;20211;-78
2020/12/02 19:57:43;;;;;;;18.03;8.10;;;8.80;99.90;;;;;;4865879;29;20217;-78
2020/12/02 20:00:09;;;;;;;17.10;6.50;;;8.90;99.90;;;;;;4866277;29;20214;-77
2020/12/02 20:02:41;;;;;;;17.07;7.60;;;8.80;99.90;;;;;;4865648;29;20241;-78
2020/12/02 20:05:23;;;;;;;17.73;7.27;;;8.80;99.90;;;;;;4866416;29;20210;-78
2020/12/02 20:07:54;;;;;;;12.50;6.77;;;8.90;99.90;;;;;;4866523;29;20241;-78
2020/12/02 20:10:23;;;;;;;14.50;6.53;;;9.00;99.90;;;;;;4866362;29;20206;-78
2020/12/02 20:12:54;;;;;;;13.43;6.23;;;9.00;99.90;;;;;;4865920;29;20230;-78
2020/12/02 20:15:31;;;;;;;14.77;6.20;;;8.80;99.90;;;;;;4865883;29;20226;-77
2020/12/02 20:18:07;;;;;;;13.27;5.47;;;8.80;99.90;;;;;;4897869;29;20213;-77
2020/12/02 20:20:38;;;;;;;13.63;6.07;;;8.90;99.90;;;;;;4897835;29;20214;-77
2020/12/02 20:23:34;;;;;;;11.97;5.80;;;9.00;99.90;;;;;;4897623;29;20585;-77
2020/12/02 20:26:05;;;;;;;12.67;5.90;;;8.90;99.90;;;;;;4897440;29;20666;-78
2020/12/02 20:28:35;;;;;;;17.77;6.33;;;8.90;99.90;;;;;;4897582;29;20241;-77
2020/12/02 20:31:06;;;;;;;12.77;5.87;;;8.90;99.90;;;;;;4897413;29;20229;-77
2020/12/02 20:33:37;;;;;;;13.40;5.87;;;8.90;99.90;;;;;;4897607;29;20206;-78
2020/12/02 20:36:06;;;;;;;10.13;5.33;;;9.00;99.90;;;;;;4897822;29;20218;-78
2020/12/02 20:38:45;;;;;;;16.73;5.43;;;9.10;99.90;;;;;;4897639;29;20214;-78
2020/12/02 20:41:13;;;;;;;12.43;4.83;;;9.00;99.90;;;;;;4897862;29;20237;-79
2020/12/02 20:43:40;;;;;;;11.83;5.90;;;8.90;99.90;;;;;;4897478;29;20213;-78
2020/12/02 20:46:16;;;;;;;12.30;5.27;;;8.90;99.90;;;;;;4897726;29;20289;-78
2020/12/02 20:48:44;;;;;;;13.00;5.30;;;8.80;99.90;;;;;;4897498;29;20285;-79
2020/12/02 20:51:23;;;;;;;13.73;4.97;;;8.80;99.90;;;;;;4897611;29;20237;-79
2020/12/02 20:53:50;;;;;;;12.73;5.53;;;8.80;99.90;;;;;;4897396;29;20213;-78
2020/12/02 20:56:25;;;;;;;9.93;4.77;;;8.60;99.90;;;;;;4897230;29;20685;-78
2020/12/02 20:58:57;;;;;;;10.50;5.03;;;8.60;99.90;;;;;;4898110;29;20214;-78
2020/12/02 21:01:26;;;;;;;10.87;3.93;;;8.60;99.90;;;;;;4900985;29;20234;-78
2020/12/02 21:03:54;;;;;;;12.93;4.97;;;8.70;99.90;;;;;;4900932;29;20226;-78
2020/12/02 21:06:21;;;;;;;9.40;4.07;;;8.70;99.90;;;;;;4900915;29;20210;-78
2020/12/02 21:08:48;;;;;;;9.70;3.43;;;8.60;99.90;;;;;;4900765;29;20604;-78
2020/12/02 21:11:15;;;;;;;8.37;3.80;;;8.40;99.90;;;;;;4900643;29;20721;-78
2020/12/02 21:13:42;;;;;;;8.73;3.90;;;8.40;99.90;;;;;;4900943;29;20559;-78
2020/12/02 21:16:36;;;;;;;10.97;3.70;;;8.40;99.90;;;;;;4900452;29;20222;-78
2020/12/02 21:19:21;;;;;;;10.50;4.37;;;8.50;99.90;;;;;;4900660;29;20214;-78
2020/12/02 21:22:04;;;;;;;9.90;4.10;;;8.50;99.90;;;;;;4892225;29;20233;-78
2020/12/02 21:24:43;;;;;;;8.23;3.37;;;8.50;99.90;;;;;;4900599;29;20233;-78
2020/12/02 21:27:14;;;;;;;12.03;4.07;;;8.60;99.90;;;;;;4900566;29;20221;-77
2020/12/02 21:29:46;;;;;;;10.37;4.30;;;8.50;99.90;;;;;;4900380;29;20221;-78
2020/12/02 21:32:28;;;;;;;14.33;4.53;;;8.40;99.90;;;;;;4900353;29;20589;-78
2020/12/02 21:35:14;;;;;;;11.30;3.90;;;8.30;99.90;;;;;;4900398;29;20217;-75
2020/12/02 21:37:41;;;;;;;8.63;3.43;;;8.20;99.90;;;;;;4900053;29;20237;-76
2020/12/02 21:40:37;;;;;;;9.27;3.40;;;8.20;99.90;;;;;;4900469;29;20218;-75
2020/12/02 21:43:38;;;;;;;10.87;3.50;;;8.10;99.90;;;;;;4900325;29;20238;-76
2020/12/02 21:46:15;;;;;;;12.97;3.60;;;8.20;99.90;;;;;;4900039;29;20221;-75
2020/12/02 21:48:56;;;;;;;11.57;3.40;;;8.10;99.90;;;;;;4900168;29;20238;-76
2020/12/02 21:51:43;;;;;;;8.97;3.10;;;8.10;99.90;;;;;;4900280;29;20230;-76
2020/12/02 21:54:33;;;;;;;7.87;3.30;;;8.00;99.90;;;;;;4900129;29;20559;-78
2020/12/02 21:57:01;;;;;;;9.03;3.10;;;8.00;99.90;;;;;;4900253;29;20222;-78
2020/12/02 21:59:30;;;;;;;8.23;3.17;;;8.00;99.90;;;;;;4900025;29;20214;-78
2020/12/02 22:02:38;;;;;;;8.30;3.00;;;8.10;99.90;;;;;;4900039;29;20226;-78
2020/12/02 22:05:27;;;;;;;14.03;3.03;;;8.20;99.90;;;;;;4899911;29;20293;-78
2020/12/02 22:07:58;;;;;;;12.17;3.17;;;8.10;99.90;;;;;;4897949;29;20238;-78
2020/12/02 22:10:29;;;;;;;7.47;3.27;;;8.20;99.90;;;;;;4899161;29;20214;-78
2020/12/02 22:13:16;;;;;;;6.00;2.90;;;8.20;99.90;;;;;;4899666;29;20574;-78
2020/12/02 22:15:51;;;;;;;8.67;2.90;;;8.20;99.90;;;;;;4899529;29;20218;-78
2020/12/02 22:18:24;;;;;;;7.27;3.57;;;8.30;99.90;;;;;;4899541;29;20538;-78
2020/12/02 22:21:01;;;;;;;11.50;3.73;;;8.20;99.90;;;;;;4899676;29;20210;-78
2020/12/02 22:23:39;;;;;;;10.87;3.57;;;8.20;99.90;;;;;;4899834;29;20236;-78
2020/12/02 22:26:06;;;;;;;5.70;3.40;;;8.30;99.90;;;;;;4899621;29;20210;-78
2020/12/02 22:28:34;;;;;;;13.43;3.87;;;8.30;99.90;;;;;;4899475;29;20242;-78
2020/12/02 22:31:04;;;;;;;12.83;4.00;;;8.20;99.90;;;;;;4899345;29;20215;-78
2020/12/02 22:34:06;;;;;;;10.50;4.20;;;8.20;99.90;;;;;;4899547;29;20210;-78
2020/12/02 22:36:54;;;;;;;10.37;4.13;;;8.20;99.90;;;;;;4899330;29;20607;-78
2020/12/02 22:39:50;;;;;;;9.10;3.90;;;8.30;99.90;;;;;;4899240;29;20704;-78
2020/12/02 22:42:35;;;;;;;15.00;4.40;;;8.20;99.90;;;;;;4898888;29;20230;-78
2020/12/02 22:45:08;;;;;;;10.30;4.67;;;8.30;99.90;;;;;;4899247;29;20218;-78
2020/12/02 22:47:54;;;;;;;11.47;4.00;;;8.20;99.90;;;;;;4899050;29;20234;-78
2020/12/02 22:50:23;;;;;;;10.23;4.20;;;8.20;99.90;;;;;;4898897;29;20218;-78
2020/12/02 22:52:51;;;;;;;8.97;4.30;;;8.20;99.90;;;;;;4898724;29;20230;-78
2020/12/02 22:55:29;;;;;;;13.50;4.20;;;8.20;99.90;;;;;;4899168;29;20206;-78
2020/12/02 22:57:57;;;;;;;7.50;3.70;;;8.00;99.90;;;;;;4899102;29;20216;-78
2020/12/02 23:00:30;;;;;;;11.70;4.27;;;8.00;99.90;;;;;;4898814;29;20218;-78
2020/12/02 23:03:00;;;;;;;11.57;4.53;;;8.00;99.90;;;;;;4898638;29;20235;-78
2020/12/02 23:05:28;;;;;;;8.07;4.13;;;8.10;99.90;;;;;;4898519;29;20210;-78
2020/12/02 23:07:56;;;;;;;10.27;4.00;;;8.10;99.90;;;;;;4898962;29;20242;-78
2020/12/02 23:10:25;;;;;;;11.20;3.60;;;8.10;99.90;;;;;;4898915;29;20207;-78
2020/12/02 23:12:56;;;;;;;8.37;3.90;;;8.00;99.90;;;;;;4898544;29;20632;-78
2020/12/02 23:15:29;;;;;;;14.00;4.10;;;8.10;99.90;;;;;;4898388;29;20597;-78
2020/12/02 23:18:02;;;;;;;8.20;4.00;;;8.10;99.90;;;;;;4898416;29;20740;-78
2020/12/02 23:20:33;;;;;;;9.10;3.73;;;8.10;99.90;;;;;;4898498;29;20258;-78
2020/12/02 23:23:01;;;;;;;6.87;3.30;;;8.10;99.90;;;;;;4897484;29;20587;-78
2020/12/02 23:25:28;;;;;;;7.67;3.77;;;8.00;99.90;;;;;;4898478;29;20217;-78
2020/12/02 23:28:02;;;;;;;10.63;3.63;;;8.00;99.90;;;;;;4898080;29;20626;-78
2020/12/02 23:30:51;;;;;;;9.47;3.83;;;8.10;99.90;;;;;;4898107;29;20210;-78
2020/12/02 23:33:48;;;;;;;11.63;3.80;;;8.00;99.90;;;;;;4892061;29;20665;-76
2020/12/02 23:36:17;;;;;;;10.17;3.73;;;8.10;99.90;;;;;;4891714;29;20291;-76
2020/12/02 23:38:47;;;;;;;12.53;4.00;;;8.10;99.90;;;;;;4898064;29;20206;-76
2020/12/02 23:41:16;;;;;;;10.63;3.60;;;8.00;99.90;;;;;;4898267;29;20630;-76
2020/12/02 23:44:02;;;;;;;6.77;3.17;;;8.00;99.90;;;;;;4898146;29;20674;-76
2020/12/02 23:46:35;;;;;;;8.00;3.40;;;7.90;99.90;;;;;;4898057;29;20210;-76
2020/12/02 23:49:11;;;;;;;9.33;4.50;;;8.00;99.90;;;;;;4897935;29;20594;-76
2020/12/02 23:51:38;;;;;;;10.13;3.63;;;8.00;99.90;;;;;;4898325;29;20233;-76
2020/12/02 23:54:05;;;;;;;8.80;3.43;;;8.00;99.90;;;;;;4898217;29;20220;-76
2020/12/02 23:56:31;;;;;;;11.90;3.17;;;8.00;99.90;;;;;;4898169;29;20206;-76
2020/12/02 23:58:57;;;;;;;9.90;2.93;;;8.00;99.90;;;;;;4898232;29;20214;-76
